Time;durP1;ratioP1;P1;durP2;ratioP2;P2;SDS_P1;SDS_P2;PMS_P1;PMS_P2;Temp;Humidity;BMP_temperature;BMP_pressure;BME280_temperature;BME280_humidity;BME280_pressure;Samples;Min_cycle;Max_cycle;Signal;HPM_P1;HPM_P2
2022/10/14 00:01:01;;;;;;;;;;;18.10;1.00;;;;;;5057082;28;19964;-51
2022/10/14 00:03:31;;;;;;;;;;;18.10;1.00;;;;;;5056605;28;19967;-54
2022/10/14 00:05:58;;;;;;;;;;;18.20;1.00;;;;;;5056753;28;19928;-54
2022/10/14 00:08:25;;;;;;;;;;;18.20;1.00;;;;;;5056965;28;20374;-55
2022/10/14 00:10:53;;;;;;;;;;;18.20;1.00;;;;;;5056754;28;19921;-55
2022/10/14 00:13:19;;;;;;;;;;;18.20;1.00;;;;;;5056215;28;19929;-55
2022/10/14 00:15:46;;;;;;;;;;;18.20;1.00;;;;;;5056640;28;19971;-55
2022/10/14 00:18:15;;;;;;;;;;;18.20;1.00;;;;;;5056575;28;19928;-56
2022/10/14 00:20:52;;;;;;;;;;;18.20;1.00;;;;;;5057077;28;19952;-53
2022/10/14 00:23:18;;;;;;;;;;;18.20;1.00;;;;;;5056193;28;19924;-58
2022/10/14 00:25:45;;;;;;;;;;;18.20;1.00;;;;;;5056289;28;20397;-52
2022/10/14 00:28:12;;;;;;;;;;;18.20;1.00;;;;;;5056415;28;20333;-54
2022/10/14 00:30:39;;;;;;;;;;;18.20;1.00;;;;;;5056726;28;20365;-47
2022/10/14 00:33:07;;;;;;;;;;;18.20;1.00;;;;;;5056183;28;20011;-46
2022/10/14 00:35:34;;;;;;;;;;;18.10;1.00;;;;;;5056617;28;19927;-56
2022/10/14 00:38:01;;;;;;;;;;;18.20;1.00;;;;;;5055299;28;19921;-53
2022/10/14 00:40:27;;;;;;;;;;;18.20;1.00;;;;;;5056054;28;20298;-44
2022/10/14 00:42:54;;;;;;;;;;;18.10;1.00;;;;;;5056198;28;19928;-47
2022/10/14 00:45:22;;;;;;;;;;;18.20;1.00;;;;;;5056592;28;19928;-50
2022/10/14 00:47:50;;;;;;;;;;;18.20;1.00;;;;;;5056196;28;19925;-51
2022/10/14 00:50:17;;;;;;;;;;;18.20;1.00;;;;;;5056154;28;19924;-52
2022/10/14 00:52:44;;;;;;;;;;;18.20;1.00;;;;;;5055806;28;19924;-51
2022/10/14 00:55:14;;;;;;;;;;;18.20;1.00;;;;;;5055990;28;19924;-53
2022/10/14 00:57:40;;;;;;;;;;;18.10;1.00;;;;;;5055859;28;20344;-50
2022/10/14 01:00:09;;;;;;;;;;;18.10;1.00;;;;;;5054663;28;19920;-51
2022/10/14 01:02:36;;;;;;;;;;;18.10;1.00;;;;;;5055350;28;20404;-49
2022/10/14 01:05:03;;;;;;;;;;;18.10;1.00;;;;;;5054279;28;20279;-54
2022/10/14 01:07:36;;;;;;;;;;;18.10;1.00;;;;;;5056044;28;19924;-54
2022/10/14 01:10:04;;;;;;;;;;;18.10;1.00;;;;;;5055542;28;19921;-50
2022/10/14 01:12:44;;;;;;;;;;;18.10;1.00;;;;;;5055229;28;19926;-50
2022/10/14 01:15:11;;;;;;;;;;;18.10;1.00;;;;;;5056071;28;19948;-54
2022/10/14 01:17:41;;;;;;;;;;;18.10;1.00;;;;;;5055319;28;19921;-54
2022/10/14 01:20:26;;;;;;;;;;;18.00;1.00;;;;;;5055364;28;19990;-54
2022/10/14 01:23:02;;;;;;;;;;;18.00;1.00;;;;;;5055154;28;20019;-51
2022/10/14 01:25:51;;;;;;;;;;;18.00;1.00;;;;;;5055745;28;19925;-56
2022/10/14 01:28:27;;;;;;;;;;;18.10;1.00;;;;;;5055177;28;19921;-52
2022/10/14 01:31:01;;;;;;;;;;;18.00;1.00;;;;;;5054186;28;19921;-53
2022/10/14 01:33:34;;;;;;;;;;;18.00;1.00;;;;;;5054906;28;19927;-51
2022/10/14 01:36:15;;;;;;;;;;;18.00;1.00;;;;;;5053845;28;19968;-49
2022/10/14 01:38:42;;;;;;;;;;;18.00;1.00;;;;;;5053921;28;20321;-53
2022/10/14 01:41:09;;;;;;;;;;;18.10;1.00;;;;;;5054066;28;19920;-57
2022/10/14 01:43:36;;;;;;;;;;;18.10;1.00;;;;;;5054940;28;19927;-52
2022/10/14 01:46:05;;;;;;;;;;;18.10;1.00;;;;;;5053518;28;19921;-54
2022/10/14 01:48:33;;;;;;;;;;;18.00;1.00;;;;;;5055455;28;19924;-56
2022/10/14 01:51:01;;;;;;;;;;;18.00;1.00;;;;;;5053180;28;19928;-49
2022/10/14 01:53:31;;;;;;;;;;;17.90;1.00;;;;;;5054470;28;19921;-55
2022/10/14 01:55:59;;;;;;;;;;;17.90;1.00;;;;;;5055328;28;20313;-56
2022/10/14 01:58:27;;;;;;;;;;;17.90;1.00;;;;;;5053376;28;19974;-56
2022/10/14 02:00:55;;;;;;;;;;;17.90;1.00;;;;;;5054351;28;19921;-56
2022/10/14 02:03:22;;;;;;;;;;;17.90;1.00;;;;;;5054294;28;19928;-51
2022/10/14 02:05:59;;;;;;;;;;;17.90;1.00;;;;;;5054542;28;19921;-55
2022/10/14 02:08:42;;;;;;;;;;;17.90;1.00;;;;;;5054562;28;19921;-55
2022/10/14 02:11:19;;;;;;;;;;;17.90;1.00;;;;;;5055029;28;20007;-54
2022/10/14 02:13:50;;;;;;;;;;;17.90;1.00;;;;;;5052780;28;19979;-55
2022/10/14 02:16:20;;;;;;;;;;;17.90;1.00;;;;;;5053102;28;20015;-57
2022/10/14 02:18:55;;;;;;;;;;;17.90;1.00;;;;;;5054454;28;20374;-50
2022/10/14 02:21:25;;;;;;;;;;;17.90;1.00;;;;;;5054593;28;19921;-51
2022/10/14 02:23:54;;;;;;;;;;;17.90;1.00;;;;;;5053845;28;19927;-54
2022/10/14 02:26:23;;;;;;;;;;;17.90;1.00;;;;;;5052738;28;19920;-53
2022/10/14 02:28:50;;;;;;;;;;;17.90;1.00;;;;;;5053102;28;20385;-54
2022/10/14 02:31:18;;;;;;;;;;;17.90;1.00;;;;;;5052827;28;19920;-52
2022/10/14 02:33:48;;;;;;;;;;;17.90;1.00;;;;;;5052699;28;19927;-54
2022/10/14 02:36:16;;;;;;;;;;;17.80;1.00;;;;;;5053295;28;20276;-54
2022/10/14 02:38:45;;;;;;;;;;;17.80;1.00;;;;;;5053994;28;20362;-56
2022/10/14 02:41:13;;;;;;;;;;;17.80;1.00;;;;;;5052641;28;19933;-54
2022/10/14 02:43:40;;;;;;;;;;;17.80;1.00;;;;;;5053946;28;19925;-55
2022/10/14 02:46:07;;;;;;;;;;;17.80;1.00;;;;;;5052453;28;19921;-54
2022/10/14 02:48:34;;;;;;;;;;;17.80;1.00;;;;;;5052773;28;19952;-53
2022/10/14 02:51:01;;;;;;;;;;;17.80;1.00;;;;;;5053167;28;20011;-51
2022/10/14 02:53:29;;;;;;;;;;;17.80;1.00;;;;;;5052340;28;19920;-53
2022/10/14 02:55:57;;;;;;;;;;;17.80;1.00;;;;;;5054143;28;19927;-51
2022/10/14 02:58:24;;;;;;;;;;;17.80;1.00;;;;;;5054185;28;19920;-52
2022/10/14 03:00:51;;;;;;;;;;;17.80;1.00;;;;;;5051984;28;19978;-52
2022/10/14 03:03:19;;;;;;;;;;;17.80;1.00;;;;;;5051901;28;19920;-54
2022/10/14 03:05:46;;;;;;;;;;;17.70;1.00;;;;;;5053458;28;19920;-56
2022/10/14 03:08:14;;;;;;;;;;;17.70;1.00;;;;;;5052452;28;19928;-55
2022/10/14 03:10:47;;;;;;;;;;;17.80;1.00;;;;;;5052216;28;19927;-56
2022/10/14 03:13:14;;;;;;;;;;;17.80;1.00;;;;;;5052530;28;19963;-57
2022/10/14 03:15:47;;;;;;;;;;;17.70;1.00;;;;;;5035954;28;20015;-59
2022/10/14 03:18:14;;;;;;;;;;;17.80;1.00;;;;;;5052366;28;20366;-60
2022/10/14 03:20:44;;;;;;;;;;;17.80;1.00;;;;;;5052260;28;20012;-58
2022/10/14 03:23:15;;;;;;;;;;;17.80;1.00;;;;;;5052213;28;20373;-54
2022/10/14 03:25:45;;;;;;;;;;;17.80;1.00;;;;;;5052187;28;19943;-54
2022/10/14 03:28:20;;;;;;;;;;;17.80;1.00;;;;;;5041944;28;20298;-53
2022/10/14 03:30:57;;;;;;;;;;;17.80;1.00;;;;;;5033746;28;19927;-55
2022/10/14 03:33:47;;;;;;;;;;;17.90;1.00;;;;;;5031825;28;19931;-54
2022/10/14 03:36:16;;;;;;;;;;;17.80;1.00;;;;;;5032264;28;19923;-50
2022/10/14 03:38:51;;;;;;;;;;;17.80;1.00;;;;;;5032681;28;19975;-50
2022/10/14 03:41:33;;;;;;;;;;;17.80;1.00;;;;;;5032189;28;19925;-52
2022/10/14 03:44:00;;;;;;;;;;;17.80;1.00;;;;;;5032180;28;19925;-51
2022/10/14 03:46:27;;;;;;;;;;;17.80;1.00;;;;;;5031883;28;19921;-52
2022/10/14 03:48:56;;;;;;;;;;;17.80;1.00;;;;;;5031915;28;19964;-52
2022/10/14 03:51:23;;;;;;;;;;;17.70;1.00;;;;;;5032109;28;19976;-49
2022/10/14 03:53:52;;;;;;;;;;;17.80;1.00;;;;;;5031759;28;20271;-49
2022/10/14 03:56:25;;;;;;;;;;;17.70;1.00;;;;;;5031980;28;19968;-51
2022/10/14 03:58:52;;;;;;;;;;;17.70;1.00;;;;;;5031902;28;19921;-50
2022/10/14 04:01:21;;;;;;;;;;;17.70;1.00;;;;;;5031944;28;19931;-52
2022/10/14 04:04:14;;;;;;;;;;;17.70;1.00;;;;;;5031115;28;19921;-53
2022/10/14 04:06:40;;;;;;;;;;;17.70;1.00;;;;;;5031819;28;19966;-50
2022/10/14 04:09:08;;;;;;;;;;;17.70;1.00;;;;;;5031724;28;19960;-47
2022/10/14 04:11:38;;;;;;;;;;;17.70;1.00;;;;;;5034266;28;20328;-50
2022/10/14 04:14:08;;;;;;;;;;;17.70;1.00;;;;;;5051684;28;19924;-52
2022/10/14 04:16:42;;;;;;;;;;;17.70;1.00;;;;;;5030961;28;19921;-52
2022/10/14 04:19:16;;;;;;;;;;;17.70;1.00;;;;;;5035620;28;19928;-51
2022/10/14 04:21:43;;;;;;;;;;;17.60;1.00;;;;;;5035298;28;19921;-58
2022/10/14 04:24:10;;;;;;;;;;;17.60;1.00;;;;;;5036491;28;19967;-50
2022/10/14 04:26:54;;;;;;;;;;;17.60;1.00;;;;;;5034340;28;20354;-52
2022/10/14 04:29:53;;;;;;;;;;;17.60;1.00;;;;;;5028676;28;19925;-54
2022/10/14 04:32:26;;;;;;;;;;;17.70;1.00;;;;;;5035056;28;20353;-53
2022/10/14 04:34:53;;;;;;;;;;;17.60;1.00;;;;;;5035189;28;19921;-55
2022/10/14 04:37:23;;;;;;;;;;;17.50;1.00;;;;;;5029011;28;20011;-55
2022/10/14 04:40:04;;;;;;;;;;;17.50;1.00;;;;;;5034898;28;19921;-55
2022/10/14 04:42:37;;;;;;;;;;;17.40;1.00;;;;;;5029327;28;19921;-54
2022/10/14 04:45:09;;;;;;;;;;;17.60;1.00;;;;;;5029712;28;19921;-58
2022/10/14 04:47:45;;;;;;;;;;;17.70;1.00;;;;;;5034639;28;20663;-50
2022/10/14 04:50:17;;;;;;;;;;;17.70;1.00;;;;;;5034669;28;19921;-54
2022/10/14 04:53:04;;;;;;;;;;;17.70;1.00;;;;;;5035601;28;20023;-50
2022/10/14 04:55:45;;;;;;;;;;;17.60;1.00;;;;;;5034849;28;19960;-51
2022/10/14 04:58:12;;;;;;;;;;;17.60;1.00;;;;;;5034721;28;19932;-56
2022/10/14 05:00:43;;;;;;;;;;;17.50;1.00;;;;;;5034456;28;19925;-55
2022/10/14 05:03:24;;;;;;;;;;;17.50;1.00;;;;;;5034330;28;19950;-54
2022/10/14 05:05:51;;;;;;;;;;;17.50;1.00;;;;;;5034208;28;19932;-55
2022/10/14 05:08:19;;;;;;;;;;;17.50;1.00;;;;;;5018110;28;19921;-55
2022/10/14 05:10:49;;;;;;;;;;;17.50;1.00;;;;;;5032777;28;19964;-55
2022/10/14 05:13:29;;;;;;;;;;;17.50;1.00;;;;;;5034069;28;19935;-51
2022/10/14 05:16:02;;;;;;;;;;;17.50;1.00;;;;;;5034641;28;19930;-54
2022/10/14 05:18:29;;;;;;;;;;;17.40;1.00;;;;;;5034699;28;19927;-54
2022/10/14 05:21:00;;;;;;;;;;;17.50;1.00;;;;;;5049058;28;19921;-54
2022/10/14 05:23:52;;;;;;;;;;;17.40;1.00;;;;;;5053846;28;19921;-54
2022/10/14 05:26:19;;;;;;;;;;;17.50;1.00;;;;;;5053132;28;19924;-52
2022/10/14 05:28:49;;;;;;;;;;;17.50;1.00;;;;;;5054411;28;19925;-53
2022/10/14 05:31:18;;;;;;;;;;;17.50;1.00;;;;;;5053866;28;19970;-58
2022/10/14 05:33:53;;;;;;;;;;;17.50;1.00;;;;;;5053340;28;19921;-52
2022/10/14 05:36:20;;;;;;;;;;;17.50;1.00;;;;;;5055090;28;20366;-54
2022/10/14 05:38:47;;;;;;;;;;;17.50;1.00;;;;;;5055200;28;19928;-53
2022/10/14 05:41:16;;;;;;;;;;;17.40;1.00;;;;;;5053826;28;19921;-54
2022/10/14 05:43:42;;;;;;;;;;;17.40;1.00;;;;;;5055210;28;19921;-53
2022/10/14 05:46:09;;;;;;;;;;;17.40;1.00;;;;;;5054755;28;19967;-54
2022/10/14 05:48:40;;;;;;;;;;;17.40;1.00;;;;;;5053877;28;20353;-51
2022/10/14 05:51:06;;;;;;;;;;;17.40;1.00;;;;;;5054717;28;20335;-57
2022/10/14 05:53:38;;;;;;;;;;;17.40;1.00;;;;;;5053518;28;20355;-55
2022/10/14 05:56:09;;;;;;;;;;;17.50;1.00;;;;;;5053292;28;19948;-57
2022/10/14 05:58:38;;;;;;;;;;;17.50;1.00;;;;;;5055509;28;19979;-57
2022/10/14 06:01:07;;;;;;;;;;;17.50;1.00;;;;;;5053426;28;19920;-56
2022/10/14 06:03:37;;;;;;;;;;;17.60;1.00;;;;;;5053278;28;19963;-56
2022/10/14 06:06:04;;;;;;;;;;;17.50;1.00;;;;;;5055045;28;19921;-52
2022/10/14 06:08:31;;;;;;;;;;;17.50;1.00;;;;;;5052576;28;19921;-56
2022/10/14 06:11:01;;;;;;;;;;;17.60;1.00;;;;;;5054453;28;19921;-53
2022/10/14 06:13:28;;;;;;;;;;;17.60;1.00;;;;;;5052431;28;20271;-58
2022/10/14 06:16:07;;;;;;;;;;;17.60;1.00;;;;;;5051850;28;19920;-60
2022/10/14 06:18:34;;;;;;;;;;;17.60;1.00;;;;;;5045730;28;19947;-48
2022/10/14 06:21:02;;;;;;;;;;;17.60;1.00;;;;;;5051999;28;19924;-48
2022/10/14 06:23:28;;;;;;;;;;;17.60;1.00;;;;;;5053901;28;19921;-48
2022/10/14 06:25:55;;;;;;;;;;;17.50;1.00;;;;;;5053885;28;19952;-49
2022/10/14 06:28:22;;;;;;;;;;;17.50;1.00;;;;;;5053956;28;19925;-52
2022/10/14 06:30:52;;;;;;;;;;;17.50;1.00;;;;;;5054137;28;20344;-47
2022/10/14 06:33:20;;;;;;;;;;;17.50;1.00;;;;;;5053802;28;19921;-53
2022/10/14 06:35:47;;;;;;;;;;;17.50;1.00;;;;;;5053927;28;19920;-52
2022/10/14 06:38:14;;;;;;;;;;;17.50;1.00;;;;;;5053319;28;19920;-48
2022/10/14 06:40:40;;;;;;;;;;;17.50;1.00;;;;;;5053944;28;20362;-52
2022/10/14 06:43:07;;;;;;;;;;;17.50;1.00;;;;;;5052539;28;19947;-54
2022/10/14 06:45:34;;;;;;;;;;;17.50;1.00;;;;;;5053816;28;19921;-55
2022/10/14 06:48:00;;;;;;;;;;;17.40;1.00;;;;;;5053645;28;20374;-54
2022/10/14 06:50:27;;;;;;;;;;;17.50;1.00;;;;;;5054240;28;20282;-47
2022/10/14 06:52:54;;;;;;;;;;;17.50;1.00;;;;;;5053528;28;19958;-50
2022/10/14 06:55:20;;;;;;;;;;;17.50;1.00;;;;;;5053921;28;19921;-53
2022/10/14 06:57:47;;;;;;;;;;;17.50;1.00;;;;;;5053649;28;19928;-52
2022/10/14 07:00:14;;;;;;;;;;;17.40;1.00;;;;;;5054016;28;19964;-55
2022/10/14 07:02:41;;;;;;;;;;;17.40;1.00;;;;;;5053149;28;19921;-55
2022/10/14 07:05:08;;;;;;;;;;;17.30;1.00;;;;;;5053415;28;20424;-52
2022/10/14 07:07:35;;;;;;;;;;;17.30;1.00;;;;;;5053559;28;19920;-53
2022/10/14 07:10:02;;;;;;;;;;;17.30;1.00;;;;;;5053742;28;20374;-57
2022/10/14 07:12:28;;;;;;;;;;;17.30;1.00;;;;;;5053092;28;19920;-51
2022/10/14 07:14:55;;;;;;;;;;;17.30;1.00;;;;;;5053212;28;20283;-50
2022/10/14 07:17:22;;;;;;;;;;;17.30;1.00;;;;;;5053318;28;20372;-51
2022/10/14 07:19:50;;;;;;;;;;;17.30;1.00;;;;;;5053313;28;19920;-53
2022/10/14 07:22:16;;;;;;;;;;;17.30;1.00;;;;;;5052998;28;19975;-53
2022/10/14 07:24:43;;;;;;;;;;;17.30;1.00;;;;;;5053230;28;19927;-56
2022/10/14 07:27:10;;;;;;;;;;;17.30;1.00;;;;;;5053394;28;20260;-51
2022/10/14 07:29:37;;;;;;;;;;;17.40;1.00;;;;;;5053374;28;19947;-50
2022/10/14 07:32:03;;;;;;;;;;;17.30;1.00;;;;;;5052989;28;19974;-53
2022/10/14 07:34:32;;;;;;;;;;;17.30;1.00;;;;;;5053099;28;20362;-53
2022/10/14 07:36:59;;;;;;;;;;;17.30;1.00;;;;;;5053055;28;19921;-53
2022/10/14 07:39:27;;;;;;;;;;;17.30;1.00;;;;;;5053456;28;19967;-55
2022/10/14 07:41:54;;;;;;;;;;;17.30;1.00;;;;;;5052737;28;19924;-52
2022/10/14 07:44:21;;;;;;;;;;;17.30;1.00;;;;;;5053385;28;19927;-55
2022/10/14 07:46:53;;;;;;;;;;;17.30;1.00;;;;;;5052987;28;20390;-53
2022/10/14 07:49:20;;;;;;;;;;;17.30;1.00;;;;;;5056426;28;19924;-51
2022/10/14 07:51:47;;;;;;;;;;;17.30;1.00;;;;;;5056899;28;19920;-54
2022/10/14 07:54:19;;;;;;;;;;;17.30;1.00;;;;;;5057351;28;19921;-52
2022/10/14 07:56:48;;;;;;;;;;;17.30;1.00;;;;;;5057177;28;19920;-56
2022/10/14 07:59:15;;;;;;;;;;;17.30;1.00;;;;;;5056899;28;19974;-55
2022/10/14 08:01:44;;;;;;;;;;;17.30;1.00;;;;;;5056569;28;19947;-56
2022/10/14 08:04:11;;;;;;;;;;;17.30;1.00;;;;;;5056903;28;20436;-58
2022/10/14 08:06:38;;;;;;;;;;;17.30;1.00;;;;;;5056508;28;19924;-51
2022/10/14 08:09:05;;;;;;;;;;;17.30;1.00;;;;;;5057316;28;20374;-55
2022/10/14 08:11:32;;;;;;;;;;;17.30;1.00;;;;;;5056556;28;19920;-56
2022/10/14 08:13:58;;;;;;;;;;;17.30;1.00;;;;;;5056455;28;19982;-54
2022/10/14 08:16:26;;;;;;;;;;;17.30;1.00;;;;;;5056511;28;19927;-56
2022/10/14 08:18:57;;;;;;;;;;;17.30;1.00;;;;;;5056702;28;19928;-53
2022/10/14 08:21:24;;;;;;;;;;;17.30;1.00;;;;;;5056819;28;19932;-49
2022/10/14 08:23:51;;;;;;;;;;;17.30;1.00;;;;;;5056717;28;20232;-54
2022/10/14 08:26:32;;;;;;;;;;;17.20;1.00;;;;;;5056042;28;20398;-51
2022/10/14 08:29:02;;;;;;;;;;;17.30;1.00;;;;;;5056473;28;19966;-58
2022/10/14 08:31:29;;;;;;;;;;;17.20;1.00;;;;;;5056244;28;19955;-55
2022/10/14 08:33:56;;;;;;;;;;;17.30;1.00;;;;;;5055822;28;20397;-50
2022/10/14 08:36:23;;;;;;;;;;;17.30;1.00;;;;;;5056398;28;19928;-48
2022/10/14 08:38:51;;;;;;;;;;;17.30;1.00;;;;;;5056079;28;20267;-52
2022/10/14 08:41:23;;;;;;;;;;;17.20;1.00;;;;;;5055847;28;19956;-50
2022/10/14 08:44:08;;;;;;;;;;;17.30;1.00;;;;;;5055895;28;19920;-49
2022/10/14 08:46:37;;;;;;;;;;;17.30;1.00;;;;;;5055907;28;19921;-53
2022/10/14 08:49:07;;;;;;;;;;;17.30;1.00;;;;;;5055753;28;19921;-59
2022/10/14 08:51:34;;;;;;;;;;;17.20;1.00;;;;;;5056036;28;19928;-53
2022/10/14 08:54:08;;;;;;;;;;;17.30;1.00;;;;;;5055717;28;19967;-57
2022/10/14 08:56:36;;;;;;;;;;;17.20;1.00;;;;;;5055669;28;20293;-56
2022/10/14 08:59:09;;;;;;;;;;;17.20;1.00;;;;;;5055385;28;19925;-57
2022/10/14 09:01:43;;;;;;;;;;;17.20;1.00;;;;;;5055301;28;19920;-57
2022/10/14 09:04:12;;;;;;;;;;;17.20;1.00;;;;;;5055736;28;20374;-53
2022/10/14 09:06:41;;;;;;;;;;;17.20;1.00;;;;;;5055648;28;19920;-57
2022/10/14 09:09:25;;;;;;;;;;;17.20;1.00;;;;;;5055849;28;19928;-53
2022/10/14 09:11:59;;;;;;;;;;;17.20;1.00;;;;;;5055295;28;20382;-56
2022/10/14 09:14:29;;;;;;;;;;;17.20;1.00;;;;;;5055422;28;19921;-53
2022/10/14 09:17:02;;;;;;;;;;;17.20;1.00;;;;;;5055353;28;20023;-54
2022/10/14 09:19:35;;;;;;;;;;;17.20;1.00;;;;;;5055121;28;19928;-57
2022/10/14 09:22:09;;;;;;;;;;;17.20;1.00;;;;;;5054721;28;19927;-56
2022/10/14 09:24:35;;;;;;;;;;;17.20;1.00;;;;;;5054798;28;19920;-56
2022/10/14 09:27:04;;;;;;;;;;;17.20;1.00;;;;;;5054763;28;19924;-51
2022/10/14 09:29:39;;;;;;;;;;;17.20;1.00;;;;;;5055172;28;19920;-59
2022/10/14 09:32:08;;;;;;;;;;;17.20;1.00;;;;;;5054449;28;20028;-54
2022/10/14 09:34:38;;;;;;;;;;;17.20;1.00;;;;;;5054706;28;19924;-60
2022/10/14 09:37:19;;;;;;;;;;;17.20;1.00;;;;;;5054548;28;19921;-52
2022/10/14 09:39:48;;;;;;;;;;;17.20;1.00;;;;;;5054650;28;20297;-54
2022/10/14 09:42:23;;;;;;;;;;;17.20;1.00;;;;;;5054380;28;20345;-56
2022/10/14 09:45:16;;;;;;;;;;;17.20;1.00;;;;;;5054573;28;19925;-56
2022/10/14 09:47:55;;;;;;;;;;;17.20;1.00;;;;;;5053729;28;20405;-51
2022/10/14 09:50:27;;;;;;;;;;;17.20;1.00;;;;;;5054449;28;19927;-51
2022/10/14 09:53:00;;;;;;;;;;;17.20;1.00;;;;;;5054190;28;20418;-53
2022/10/14 09:55:27;;;;;;;;;;;17.20;1.00;;;;;;5054241;28;20393;-54
2022/10/14 09:57:57;;;;;;;;;;;17.20;1.00;;;;;;5054315;28;19978;-56
2022/10/14 10:00:26;;;;;;;;;;;17.20;1.00;;;;;;5054384;28;19932;-48
2022/10/14 10:02:54;;;;;;;;;;;17.20;1.00;;;;;;5053871;28;19922;-54
2022/10/14 10:05:25;;;;;;;;;;;17.10;1.00;;;;;;5053966;28;20305;-53
2022/10/14 10:08:03;;;;;;;;;;;17.20;1.00;;;;;;5042064;28;19967;-53
2022/10/14 10:10:30;;;;;;;;;;;17.20;1.00;;;;;;5033290;28;19925;-53
2022/10/14 10:12:57;;;;;;;;;;;17.20;1.00;;;;;;5033401;28;19975;-51
2022/10/14 10:15:24;;;;;;;;;;;17.30;1.00;;;;;;5033843;28;19925;-52
2022/10/14 10:17:51;;;;;;;;;;;17.20;1.00;;;;;;5033644;28;20430;-55
2022/10/14 10:20:18;;;;;;;;;;;17.20;1.00;;;;;;5033883;28;19928;-58
2022/10/14 10:22:45;;;;;;;;;;;17.20;1.00;;;;;;5033457;28;19944;-52
2022/10/14 10:25:12;;;;;;;;;;;17.20;1.00;;;;;;5033661;28;19928;-54
2022/10/14 10:27:40;;;;;;;;;;;17.20;1.00;;;;;;5030202;28;19928;-54
2022/10/14 10:30:19;;;;;;;;;;;17.20;1.00;;;;;;5033674;28;19967;-55
2022/10/14 10:32:49;;;;;;;;;;;17.20;1.00;;;;;;5032623;28;19925;-59
2022/10/14 10:35:25;;;;;;;;;;;17.20;1.00;;;;;;5033755;28;19921;-54
2022/10/14 10:37:57;;;;;;;;;;;17.10;1.00;;;;;;5033700;28;19921;-56
2022/10/14 10:40:33;;;;;;;;;;;17.10;1.00;;;;;;5033885;28;19948;-52
2022/10/14 10:43:12;;;;;;;;;;;17.10;1.00;;;;;;5033447;28;19943;-53
2022/10/14 10:45:45;;;;;;;;;;;17.20;1.00;;;;;;5033483;28;19928;-54
2022/10/14 10:48:23;;;;;;;;;;;17.20;1.00;;;;;;5033656;28;19921;-55
2022/10/14 10:50:54;;;;;;;;;;;17.30;1.00;;;;;;5034108;28;19968;-55
2022/10/14 10:53:39;;;;;;;;;;;17.20;1.00;;;;;;5032979;28;20357;-55
2022/10/14 10:56:32;;;;;;;;;;;17.20;1.00;;;;;;5016487;28;20027;-55
2022/10/14 10:59:08;;;;;;;;;;;17.20;1.00;;;;;;5014417;28;19921;-56
2022/10/14 11:01:53;;;;;;;;;;;17.20;1.00;;;;;;5024755;28;19983;-56
2022/10/14 11:04:20;;;;;;;;;;;17.20;1.00;;;;;;5024309;28;19921;-53
2022/10/14 11:12:38;;;;;;;;;;;17.20;1.00;;;;;;5013413;28;20035;-51
2022/10/14 11:15:10;;;;;;;;;;;17.20;1.00;;;;;;5030026;28;19960;-52
2022/10/14 11:17:44;;;;;;;;;;;17.20;1.00;;;;;;5033136;28;19967;-55
2022/10/14 11:20:23;;;;;;;;;;;17.20;1.00;;;;;;5032488;28;19967;-52
2022/10/14 11:22:53;;;;;;;;;;;17.20;1.00;;;;;;5013887;28;20017;-51
2022/10/14 11:25:39;;;;;;;;;;;17.20;1.00;;;;;;5030980;28;20032;-55
2022/10/14 11:28:10;;;;;;;;;;;17.20;1.00;;;;;;5017693;28;19922;-50
2022/10/14 11:30:46;;;;;;;;;;;17.20;1.00;;;;;;5017845;28;19929;-51
2022/10/14 11:33:15;;;;;;;;;;;17.20;1.00;;;;;;5017685;28;20260;-47
2022/10/14 11:35:42;;;;;;;;;;;17.20;1.00;;;;;;5017707;28;19921;-51
2022/10/14 11:38:09;;;;;;;;;;;17.20;1.00;;;;;;5017397;28;19929;-53
2022/10/14 11:40:50;;;;;;;;;;;17.20;1.00;;;;;;5017930;28;19952;-52
2022/10/14 11:43:22;;;;;;;;;;;17.20;1.00;;;;;;5017554;28;20403;-56
2022/10/14 11:45:56;;;;;;;;;;;17.20;1.00;;;;;;5016267;28;20011;-50
2022/10/14 11:48:42;;;;;;;;;;;17.20;1.00;;;;;;5017396;28;19921;-54
2022/10/14 11:51:15;;;;;;;;;;;17.20;1.00;;;;;;5017265;28;19976;-56
2022/10/14 11:53:46;;;;;;;;;;;17.20;1.00;;;;;;5017022;28;19936;-53
2022/10/14 11:56:28;;;;;;;;;;;17.20;1.00;;;;;;5017483;28;20031;-53
2022/10/14 11:58:58;;;;;;;;;;;17.20;1.00;;;;;;5017917;28;20027;-56
2022/10/14 12:01:26;;;;;;;;;;;17.20;1.00;;;;;;5017166;28;19925;-52
2022/10/14 12:03:53;;;;;;;;;;;17.20;1.00;;;;;;5016812;28;19921;-49
2022/10/14 12:06:20;;;;;;;;;;;17.20;1.00;;;;;;5017085;28;19921;-55
2022/10/14 12:08:57;;;;;;;;;;;17.20;1.00;;;;;;5017199;28;19968;-53
2022/10/14 12:11:45;;;;;;;;;;;17.20;1.00;;;;;;5016909;28;19929;-53
2022/10/14 12:14:16;;;;;;;;;;;17.20;1.00;;;;;;5017079;28;19921;-54
2022/10/14 12:16:44;;;;;;;;;;;17.20;1.00;;;;;;5016934;28;19921;-55
2022/10/14 12:19:13;;;;;;;;;;;17.20;1.00;;;;;;5016932;28;20355;-52
2022/10/14 12:22:03;;;;;;;;;;;17.20;1.00;;;;;;5016393;28;19929;-51
2022/10/14 12:24:31;;;;;;;;;;;17.20;1.00;;;;;;5013761;28;20023;-53
2022/10/14 12:27:03;;;;;;;;;;;17.20;1.00;;;;;;5016698;28;19984;-54
2022/10/14 12:29:31;;;;;;;;;;;17.20;1.00;;;;;;5016769;28;19921;-48
2022/10/14 12:32:04;;;;;;;;;;;17.20;1.00;;;;;;5016242;28;19945;-55
2022/10/14 12:34:35;;;;;;;;;;;17.20;1.00;;;;;;5016230;28;19925;-55
2022/10/14 12:37:22;;;;;;;;;;;17.20;1.00;;;;;;5031413;28;19976;-50
2022/10/14 12:40:02;;;;;;;;;;;17.20;1.00;;;;;;5016935;28;19922;-51
2022/10/14 12:42:35;;;;;;;;;;;17.30;1.00;;;;;;5016118;28;20291;-53
2022/10/14 12:45:13;;;;;;;;;;;17.30;1.00;;;;;;5016445;28;19945;-53
2022/10/14 12:47:40;;;;;;;;;;;17.30;1.00;;;;;;5016262;28;19965;-50
2022/10/14 12:50:14;;;;;;;;;;;17.20;1.00;;;;;;5016259;28;20003;-49
2022/10/14 12:52:45;;;;;;;;;;;17.20;1.00;;;;;;5015857;28;19928;-56
2022/10/14 12:55:22;;;;;;;;;;;17.20;1.00;;;;;;5016421;28;19921;-51
2022/10/14 12:57:53;;;;;;;;;;;17.20;1.00;;;;;;5016084;28;19921;-54
2022/10/14 13:00:20;;;;;;;;;;;17.20;1.00;;;;;;5016657;28;20227;-51
2022/10/14 13:02:47;;;;;;;;;;;17.20;1.00;;;;;;5015669;28;19921;-51
2022/10/14 13:05:24;;;;;;;;;;;17.20;1.00;;;;;;5015864;28;19983;-50
2022/10/14 13:08:13;;;;;;;;;;;17.20;1.00;;;;;;5031077;28;19925;-54
2022/10/14 13:10:43;;;;;;;;;;;17.30;1.00;;;;;;5012353;28;19929;-54
2022/10/14 13:13:31;;;;;;;;;;;17.30;1.00;;;;;;5015727;28;19921;-53
2022/10/14 13:15:58;;;;;;;;;;;17.30;1.00;;;;;;5015626;28;19921;-51
2022/10/14 13:18:33;;;;;;;;;;;17.20;1.00;;;;;;5015653;28;19932;-52
2022/10/14 13:21:00;;;;;;;;;;;17.30;1.00;;;;;;5015741;28;19921;-55
2022/10/14 13:23:34;;;;;;;;;;;17.30;1.00;;;;;;5015289;28;19944;-49
2022/10/14 13:26:22;;;;;;;;;;;17.30;1.00;;;;;;5015550;28;19976;-52
2022/10/14 13:28:57;;;;;;;;;;;17.30;1.00;;;;;;5015453;28;19965;-56
2022/10/14 13:31:37;;;;;;;;;;;17.30;1.00;;;;;;5015619;28;20280;-58
2022/10/14 13:34:22;;;;;;;;;;;17.30;1.00;;;;;;5015957;28;19928;-50
2022/10/14 13:37:08;;;;;;;;;;;17.30;1.00;;;;;;5015237;28;19983;-58
2022/10/14 13:39:37;;;;;;;;;;;17.30;1.00;;;;;;5015290;28;20003;-53
2022/10/14 13:42:04;;;;;;;;;;;17.30;1.00;;;;;;5015128;28;20008;-55
2022/10/14 13:44:31;;;;;;;;;;;17.30;1.00;;;;;;5015353;28;19921;-56
2022/10/14 13:47:00;;;;;;;;;;;17.30;1.00;;;;;;5014862;28;19928;-54
2022/10/14 13:49:32;;;;;;;;;;;17.30;1.00;;;;;;5015970;28;20032;-50
2022/10/14 13:52:03;;;;;;;;;;;17.30;1.00;;;;;;5014899;28;19928;-50
2022/10/14 13:54:30;;;;;;;;;;;17.30;1.00;;;;;;5015079;28;19928;-57
2022/10/14 13:57:01;;;;;;;;;;;17.30;1.00;;;;;;5015361;28;19925;-55
2022/10/14 13:59:48;;;;;;;;;;;17.30;1.00;;;;;;5015558;28;19922;-54
2022/10/14 14:02:38;;;;;;;;;;;17.40;1.00;;;;;;5014812;28;19928;-52
2022/10/14 14:05:05;;;;;;;;;;;17.40;1.00;;;;;;5015446;28;19925;-50
2022/10/14 14:07:34;;;;;;;;;;;17.40;1.00;;;;;;5014933;28;19927;-53
2022/10/14 14:10:22;;;;;;;;;;;17.40;1.00;;;;;;5015474;28;19925;-49
2022/10/14 14:12:49;;;;;;;;;;;17.50;1.00;;;;;;5014378;28;19948;-50
2022/10/14 14:15:18;;;;;;;;;;;17.40;1.00;;;;;;5014363;28;19925;-49
2022/10/14 14:17:44;;;;;;;;;;;17.40;1.00;;;;;;5014688;28;19921;-54
2022/10/14 14:20:11;;;;;;;;;;;17.50;1.00;;;;;;5014639;28;20298;-58
2022/10/14 14:22:40;;;;;;;;;;;17.40;1.00;;;;;;5014225;28;19926;-55
2022/10/14 14:25:11;;;;;;;;;;;17.40;1.00;;;;;;5014504;28;19922;-55
2022/10/14 14:28:00;;;;;;;;;;;17.40;1.00;;;;;;5014804;28;19922;-57
2022/10/14 14:30:27;;;;;;;;;;;17.40;1.00;;;;;;5014349;28;19921;-49
2022/10/14 14:32:54;;;;;;;;;;;17.40;1.00;;;;;;5013973;28;20405;-50
2022/10/14 14:35:21;;;;;;;;;;;17.40;1.00;;;;;;5014387;28;19935;-52
2022/10/14 14:37:48;;;;;;;;;;;17.40;1.00;;;;;;5014189;28;19921;-57
2022/10/14 14:40:23;;;;;;;;;;;17.40;1.00;;;;;;5014458;28;20342;-60
2022/10/14 14:42:55;;;;;;;;;;;17.40;1.00;;;;;;5013975;28;20449;-55
2022/10/14 14:45:24;;;;;;;;;;;17.40;1.00;;;;;;5014419;28;19930;-53
2022/10/14 14:47:52;;;;;;;;;;;17.40;1.00;;;;;;5014103;28;20352;-55
2022/10/14 14:50:32;;;;;;;;;;;17.40;1.00;;;;;;5014092;28;20379;-49
2022/10/14 14:53:19;;;;;;;;;;;17.40;1.00;;;;;;5013943;28;19921;-52
2022/10/14 14:55:52;;;;;;;;;;;17.40;1.00;;;;;;5013912;28;19932;-54
2022/10/14 14:58:24;;;;;;;;;;;17.40;1.00;;;;;;5013141;28;20443;-50
2022/10/14 15:00:53;;;;;;;;;;;17.40;1.00;;;;;;5014116;28;20422;-54